sensor_id;sensor_type;location;lat;lon;timestamp;P1;durP1;ratioP1;P2;durP2;ratioP2
24159;SDS011;62385;41.594;23.808;2022-12-11T00:01:09;5.40;;;1.45;;
24159;SDS011;62385;41.594;23.808;2022-12-11T00:03:38;1.77;;;0.60;;
24159;SDS011;62385;41.594;23.808;2022-12-11T00:06:08;4.03;;;0.82;;
24159;SDS011;62385;41.594;23.808;2022-12-11T00:08:35;2.15;;;0.95;;
24159;SDS011;62385;41.594;23.808;2022-12-11T00:11:01;4.65;;;0.82;;
24159;SDS011;62385;41.594;23.808;2022-12-11T00:13:28;0.93;;;0.82;;
24159;SDS011;62385;41.594;23.808;2022-12-11T00:15:53;5.13;;;1.42;;
24159;SDS011;62385;41.594;23.808;2022-12-11T00:18:19;1.13;;;0.88;;
24159;SDS011;62385;41.594;23.808;2022-12-11T00:20:45;3.42;;;1.40;;
24159;SDS011;62385;41.594;23.808;2022-12-11T00:23:10;0.77;;;0.57;;
24159;SDS011;62385;41.594;23.808;2022-12-11T00:25:42;1.73;;;0.50;;
24159;SDS011;62385;41.594;23.808;2022-12-11T00:28:13;2.03;;;1.00;;
24159;SDS011;62385;41.594;23.808;2022-12-11T00:30:43;0.68;;;0.50;;
24159;SDS011;62385;41.594;23.808;2022-12-11T00:33:09;0.85;;;0.35;;
24159;SDS011;62385;41.594;23.808;2022-12-11T00:35:37;2.13;;;0.80;;
24159;SDS011;62385;41.594;23.808;2022-12-11T00:38:04;1.50;;;0.98;;
24159;SDS011;62385;41.594;23.808;2022-12-11T00:40:37;1.95;;;0.63;;
24159;SDS011;62385;41.594;23.808;2022-12-11T00:43:04;3.03;;;0.85;;
24159;SDS011;62385;41.594;23.808;2022-12-11T00:45:29;0.80;;;0.40;;
24159;SDS011;62385;41.594;23.808;2022-12-11T00:47:55;1.02;;;0.65;;
24159;SDS011;62385;41.594;23.808;2022-12-11T00:50:21;4.43;;;1.42;;
24159;SDS011;62385;41.594;23.808;2022-12-11T00:52:47;7.05;;;1.58;;
24159;SDS011;62385;41.594;23.808;2022-12-11T00:55:13;1.63;;;0.93;;
24159;SDS011;62385;41.594;23.808;2022-12-11T00:57:39;2.67;;;1.58;;
24159;SDS011;62385;41.594;23.808;2022-12-11T01:00:04;1.80;;;1.00;;
24159;SDS011;62385;41.594;23.808;2022-12-11T01:02:32;4.07;;;1.40;;
24159;SDS011;62385;41.594;23.808;2022-12-11T01:04:58;5.72;;;1.70;;
24159;SDS011;62385;41.594;23.808;2022-12-11T01:07:25;4.88;;;0.85;;
24159;SDS011;62385;41.594;23.808;2022-12-11T01:09:50;2.13;;;0.90;;
24159;SDS011;62385;41.594;23.808;2022-12-11T01:12:36;6.05;;;1.38;;
24159;SDS011;62385;41.594;23.808;2022-12-11T01:15:01;7.90;;;1.30;;
24159;SDS011;62385;41.594;23.808;2022-12-11T01:17:27;2.10;;;1.20;;
24159;SDS011;62385;41.594;23.808;2022-12-11T01:19:53;1.17;;;1.05;;
24159;SDS011;62385;41.594;23.808;2022-12-11T01:22:19;2.65;;;0.85;;
24159;SDS011;62385;41.594;23.808;2022-12-11T01:24:44;1.55;;;0.85;;
24159;SDS011;62385;41.594;23.808;2022-12-11T01:27:10;1.73;;;0.70;;
24159;SDS011;62385;41.594;23.808;2022-12-11T01:29:35;1.67;;;0.90;;
24159;SDS011;62385;41.594;23.808;2022-12-11T01:32:01;1.55;;;1.00;;
24159;SDS011;62385;41.594;23.808;2022-12-11T01:34:30;8.05;;;0.82;;
24159;SDS011;62385;41.594;23.808;2022-12-11T01:36:58;1.40;;;0.75;;
24159;SDS011;62385;41.594;23.808;2022-12-11T01:39:24;3.35;;;1.00;;
24159;SDS011;62385;41.594;23.808;2022-12-11T01:41:50;4.40;;;0.82;;
24159;SDS011;62385;41.594;23.808;2022-12-11T01:46:46;0.38;;;0.30;;
24159;SDS011;62385;41.594;23.808;2022-12-11T01:49:12;2.03;;;0.63;;
24159;SDS011;62385;41.594;23.808;2022-12-11T01:51:40;0.45;;;0.45;;
24159;SDS011;62385;41.594;23.808;2022-12-11T01:54:13;0.57;;;0.52;;
24159;SDS011;62385;41.594;23.808;2022-12-11T01:56:41;0.50;;;0.50;;
24159;SDS011;62385;41.594;23.808;2022-12-11T01:59:09;5.70;;;1.10;;
24159;SDS011;62385;41.594;23.808;2022-12-11T02:01:39;1.70;;;0.50;;
24159;SDS011;62385;41.594;23.808;2022-12-11T02:04:07;2.65;;;1.02;;
24159;SDS011;62385;41.594;23.808;2022-12-11T02:09:00;1.88;;;0.50;;
24159;SDS011;62385;41.594;23.808;2022-12-11T02:11:34;1.10;;;0.68;;
24159;SDS011;62385;41.594;23.808;2022-12-11T02:17:00;10.65;;;0.80;;
24159;SDS011;62385;41.594;23.808;2022-12-11T02:22:53;5.43;;;1.08;;
24159;SDS011;62385;41.594;23.808;2022-12-11T02:31:03;10.60;;;2.20;;
24159;SDS011;62385;41.594;23.808;2022-12-11T02:33:36;2.40;;;0.77;;
24159;SDS011;62385;41.594;23.808;2022-12-11T02:36:13;6.88;;;1.13;;
24159;SDS011;62385;41.594;23.808;2022-12-11T02:38:42;2.30;;;1.05;;
24159;SDS011;62385;41.594;23.808;2022-12-11T02:41:15;1.65;;;1.05;;
24159;SDS011;62385;41.594;23.808;2022-12-11T02:43:43;8.43;;;1.60;;
24159;SDS011;62385;41.594;23.808;2022-12-11T02:46:10;1.77;;;0.85;;
24159;SDS011;62385;41.594;23.808;2022-12-11T02:48:38;3.35;;;1.65;;
24159;SDS011;62385;41.594;23.808;2022-12-11T02:51:05;1.20;;;1.10;;
24159;SDS011;62385;41.594;23.808;2022-12-11T02:53:34;9.05;;;1.15;;
24159;SDS011;62385;41.594;23.808;2022-12-11T02:56:10;11.20;;;2.22;;
24159;SDS011;62385;41.594;23.808;2022-12-11T02:58:47;1.48;;;0.82;;
24159;SDS011;62385;41.594;23.808;2022-12-11T03:01:19;4.68;;;1.95;;
24159;SDS011;62385;41.594;23.808;2022-12-11T03:03:45;4.28;;;0.98;;
24159;SDS011;62385;41.594;23.808;2022-12-11T03:06:12;0.50;;;0.50;;
24159;SDS011;62385;41.594;23.808;2022-12-11T03:08:42;4.43;;;1.30;;
24159;SDS011;62385;41.594;23.808;2022-12-11T03:11:11;0.88;;;0.77;;
24159;SDS011;62385;41.594;23.808;2022-12-11T03:13:39;3.55;;;0.98;;
24159;SDS011;62385;41.594;23.808;2022-12-11T03:18:41;1.42;;;0.93;;
24159;SDS011;62385;41.594;23.808;2022-12-11T03:21:59;0.30;;;0.25;;
24159;SDS011;62385;41.594;23.808;2022-12-11T03:27:00;4.78;;;1.60;;
24159;SDS011;62385;41.594;23.808;2022-12-11T03:29:37;3.60;;;1.38;;
24159;SDS011;62385;41.594;23.808;2022-12-11T03:32:17;5.05;;;0.98;;
24159;SDS011;62385;41.594;23.808;2022-12-11T03:34:51;5.93;;;1.92;;
24159;SDS011;62385;41.594;23.808;2022-12-11T03:37:21;1.63;;;1.10;;
24159;SDS011;62385;41.594;23.808;2022-12-11T03:39:51;11.25;;;0.73;;
24159;SDS011;62385;41.594;23.808;2022-12-11T03:42:19;4.03;;;0.55;;
24159;SDS011;62385;41.594;23.808;2022-12-11T03:44:48;2.25;;;0.98;;
24159;SDS011;62385;41.594;23.808;2022-12-11T03:47:17;0.80;;;0.60;;
24159;SDS011;62385;41.594;23.808;2022-12-11T03:49:45;2.50;;;0.73;;
24159;SDS011;62385;41.594;23.808;2022-12-11T03:52:14;0.30;;;0.20;;
24159;SDS011;62385;41.594;23.808;2022-12-11T03:54:42;1.30;;;0.32;;
24159;SDS011;62385;41.594;23.808;2022-12-11T03:57:12;5.25;;;0.40;;
24159;SDS011;62385;41.594;23.808;2022-12-11T03:59:45;3.72;;;0.93;;
24159;SDS011;62385;41.594;23.808;2022-12-11T04:02:11;9.57;;;0.82;;
24159;SDS011;62385;41.594;23.808;2022-12-11T04:04:37;2.05;;;1.38;;
24159;SDS011;62385;41.594;23.808;2022-12-11T04:07:03;1.33;;;0.60;;
24159;SDS011;62385;41.594;23.808;2022-12-11T04:09:29;0.20;;;0.20;;
24159;SDS011;62385;41.594;23.808;2022-12-11T04:11:58;8.23;;;1.15;;
24159;SDS011;62385;41.594;23.808;2022-12-11T04:14:30;1.40;;;0.45;;
24159;SDS011;62385;41.594;23.808;2022-12-11T04:17:14;2.70;;;1.02;;
24159;SDS011;62385;41.594;23.808;2022-12-11T04:20:01;2.05;;;0.20;;
24159;SDS011;62385;41.594;23.808;2022-12-11T04:22:45;2.05;;;1.27;;
24159;SDS011;62385;41.594;23.808;2022-12-11T04:25:31;0.50;;;0.32;;
24159;SDS011;62385;41.594;23.808;2022-12-11T04:27:56;1.58;;;0.68;;
24159;SDS011;62385;41.594;23.808;2022-12-11T04:30:25;2.38;;;1.15;;
24159;SDS011;62385;41.594;23.808;2022-12-11T04:32:52;0.95;;;0.50;;
24159;SDS011;62385;41.594;23.808;2022-12-11T04:35:19;0.90;;;0.28;;
24159;SDS011;62385;41.594;23.808;2022-12-11T04:37:45;0.30;;;0.20;;
24159;SDS011;62385;41.594;23.808;2022-12-11T04:40:12;2.47;;;0.82;;
24159;SDS011;62385;41.594;23.808;2022-12-11T04:42:39;4.57;;;1.05;;
24159;SDS011;62385;41.594;23.808;2022-12-11T04:45:07;3.40;;;0.40;;
24159;SDS011;62385;41.594;23.808;2022-12-11T04:47:35;1.60;;;0.82;;
24159;SDS011;62385;41.594;23.808;2022-12-11T04:50:03;3.28;;;0.85;;
24159;SDS011;62385;41.594;23.808;2022-12-11T04:52:30;1.52;;;0.40;;
24159;SDS011;62385;41.594;23.808;2022-12-11T04:54:55;13.23;;;1.27;;
24159;SDS011;62385;41.594;23.808;2022-12-11T04:57:21;3.53;;;1.73;;
24159;SDS011;62385;41.594;23.808;2022-12-11T04:59:47;3.10;;;1.50;;
24159;SDS011;62385;41.594;23.808;2022-12-11T05:02:13;9.38;;;1.80;;
24159;SDS011;62385;41.594;23.808;2022-12-11T05:04:40;1.95;;;0.75;;
24159;SDS011;62385;41.594;23.808;2022-12-11T05:07:05;2.13;;;1.27;;
24159;SDS011;62385;41.594;23.808;2022-12-11T05:09:32;2.47;;;1.25;;
24159;SDS011;62385;41.594;23.808;2022-12-11T05:11:58;0.82;;;0.75;;
24159;SDS011;62385;41.594;23.808;2022-12-11T05:14:24;5.10;;;1.92;;
24159;SDS011;62385;41.594;23.808;2022-12-11T05:16:51;3.80;;;1.17;;
24159;SDS011;62385;41.594;23.808;2022-12-11T05:19:18;0.77;;;0.40;;
24159;SDS011;62385;41.594;23.808;2022-12-11T05:21:43;2.42;;;0.60;;
24159;SDS011;62385;41.594;23.808;2022-12-11T05:24:09;3.92;;;0.50;;
24159;SDS011;62385;41.594;23.808;2022-12-11T05:26:34;2.55;;;0.50;;
24159;SDS011;62385;41.594;23.808;2022-12-11T05:29:00;5.70;;;0.50;;
24159;SDS011;62385;41.594;23.808;2022-12-11T05:31:26;0.88;;;0.60;;
24159;SDS011;62385;41.594;23.808;2022-12-11T05:33:52;3.80;;;0.93;;
24159;SDS011;62385;41.594;23.808;2022-12-11T05:38:49;5.25;;;2.20;;
24159;SDS011;62385;41.594;23.808;2022-12-11T05:41:17;4.32;;;2.25;;
24159;SDS011;62385;41.594;23.808;2022-12-11T05:43:45;3.30;;;1.63;;
24159;SDS011;62385;41.594;23.808;2022-12-11T05:46:12;5.55;;;0.95;;
24159;SDS011;62385;41.594;23.808;2022-12-11T05:48:41;4.15;;;1.27;;
24159;SDS011;62385;41.594;23.808;2022-12-11T05:51:11;1.80;;;0.70;;
24159;SDS011;62385;41.594;23.808;2022-12-11T05:53:38;1.20;;;0.73;;
24159;SDS011;62385;41.594;23.808;2022-12-11T05:56:06;1.50;;;0.70;;
24159;SDS011;62385;41.594;23.808;2022-12-11T05:58:35;10.23;;;1.20;;
24159;SDS011;62385;41.594;23.808;2022-12-11T06:01:01;4.45;;;1.60;;
24159;SDS011;62385;41.594;23.808;2022-12-11T06:03:33;6.47;;;1.98;;
24159;SDS011;62385;41.594;23.808;2022-12-11T06:06:02;5.43;;;1.83;;
24159;SDS011;62385;41.594;23.808;2022-12-11T06:08:30;5.60;;;1.73;;
24159;SDS011;62385;41.594;23.808;2022-12-11T06:10:56;8.02;;;1.83;;
24159;SDS011;62385;41.594;23.808;2022-12-11T06:13:22;14.07;;;4.55;;
24159;SDS011;62385;41.594;23.808;2022-12-11T06:15:48;7.88;;;2.30;;
24159;SDS011;62385;41.594;23.808;2022-12-11T06:18:14;11.05;;;2.28;;
24159;SDS011;62385;41.594;23.808;2022-12-11T06:20:40;5.72;;;2.75;;
24159;SDS011;62385;41.594;23.808;2022-12-11T06:23:06;4.28;;;2.05;;
24159;SDS011;62385;41.594;23.808;2022-12-11T06:25:32;2.20;;;0.85;;
24159;SDS011;62385;41.594;23.808;2022-12-11T06:27:58;6.63;;;2.35;;
24159;SDS011;62385;41.594;23.808;2022-12-11T06:30:23;9.40;;;4.63;;
24159;SDS011;62385;41.594;23.808;2022-12-11T06:32:50;3.72;;;2.13;;
24159;SDS011;62385;41.594;23.808;2022-12-11T06:35:16;5.20;;;3.55;;
24159;SDS011;62385;41.594;23.808;2022-12-11T06:37:42;7.22;;;3.08;;
24159;SDS011;62385;41.594;23.808;2022-12-11T06:40:08;6.60;;;3.30;;
24159;SDS011;62385;41.594;23.808;2022-12-11T06:42:35;5.80;;;2.88;;
24159;SDS011;62385;41.594;23.808;2022-12-11T06:45:01;2.92;;;1.90;;
24159;SDS011;62385;41.594;23.808;2022-12-11T06:47:28;9.13;;;3.47;;
24159;SDS011;62385;41.594;23.808;2022-12-11T06:49:54;3.30;;;2.78;;
24159;SDS011;62385;41.594;23.808;2022-12-11T06:52:22;2.70;;;1.55;;
24159;SDS011;62385;41.594;23.808;2022-12-11T06:54:49;3.08;;;1.60;;
24159;SDS011;62385;41.594;23.808;2022-12-11T06:57:16;8.60;;;2.28;;
24159;SDS011;62385;41.594;23.808;2022-12-11T06:59:41;4.50;;;1.85;;
24159;SDS011;62385;41.594;23.808;2022-12-11T07:02:12;3.22;;;1.92;;
24159;SDS011;62385;41.594;23.808;2022-12-11T07:04:39;9.43;;;2.83;;
24159;SDS011;62385;41.594;23.808;2022-12-11T07:07:05;8.32;;;3.08;;
24159;SDS011;62385;41.594;23.808;2022-12-11T07:09:31;5.30;;;2.33;;
24159;SDS011;62385;41.594;23.808;2022-12-11T07:11:57;4.90;;;3.28;;
24159;SDS011;62385;41.594;23.808;2022-12-11T07:14:23;9.95;;;4.82;;
24159;SDS011;62385;41.594;23.808;2022-12-11T07:16:48;8.07;;;2.53;;
24159;SDS011;62385;41.594;23.808;2022-12-11T07:19:14;5.50;;;2.72;;
24159;SDS011;62385;41.594;23.808;2022-12-11T07:21:40;7.18;;;4.15;;
24159;SDS011;62385;41.594;23.808;2022-12-11T07:24:05;9.85;;;5.40;;
24159;SDS011;62385;41.594;23.808;2022-12-11T07:26:32;13.13;;;2.78;;
24159;SDS011;62385;41.594;23.808;2022-12-11T07:28:59;3.03;;;2.33;;
24159;SDS011;62385;41.594;23.808;2022-12-11T07:31:25;6.45;;;2.78;;
24159;SDS011;62385;41.594;23.808;2022-12-11T07:33:52;7.28;;;3.65;;
24159;SDS011;62385;41.594;23.808;2022-12-11T07:36:24;6.05;;;3.63;;
24159;SDS011;62385;41.594;23.808;2022-12-11T07:38:50;2.08;;;1.58;;
24159;SDS011;62385;41.594;23.808;2022-12-11T07:41:17;4.53;;;2.13;;
24159;SDS011;62385;41.594;23.808;2022-12-11T07:43:51;2.25;;;1.70;;
24159;SDS011;62385;41.594;23.808;2022-12-11T07:46:18;0.40;;;0.40;;
24159;SDS011;62385;41.594;23.808;2022-12-11T07:48:45;1.30;;;0.60;;
24159;SDS011;62385;41.594;23.808;2022-12-11T07:51:16;0.55;;;0.30;;
24159;SDS011;62385;41.594;23.808;2022-12-11T07:53:48;4.15;;;1.50;;
24159;SDS011;62385;41.594;23.808;2022-12-11T07:56:15;3.95;;;1.55;;
24159;SDS011;62385;41.594;23.808;2022-12-11T07:58:42;2.42;;;1.33;;
24159;SDS011;62385;41.594;23.808;2022-12-11T08:01:12;3.15;;;1.25;;
24159;SDS011;62385;41.594;23.808;2022-12-11T08:03:41;2.00;;;1.05;;
24159;SDS011;62385;41.594;23.808;2022-12-11T08:06:07;2.50;;;1.75;;
24159;SDS011;62385;41.594;23.808;2022-12-11T08:08:33;2.80;;;1.27;;
24159;SDS011;62385;41.594;23.808;2022-12-11T08:11:02;1.60;;;1.02;;
24159;SDS011;62385;41.594;23.808;2022-12-11T08:13:30;7.15;;;1.40;;
24159;SDS011;62385;41.594;23.808;2022-12-11T08:15:56;6.63;;;2.42;;
24159;SDS011;62385;41.594;23.808;2022-12-11T08:18:22;3.85;;;1.95;;
24159;SDS011;62385;41.594;23.808;2022-12-11T08:20:47;1.67;;;1.40;;
24159;SDS011;62385;41.594;23.808;2022-12-11T08:23:13;3.47;;;1.33;;
24159;SDS011;62385;41.594;23.808;2022-12-11T08:25:39;3.92;;;1.75;;
24159;SDS011;62385;41.594;23.808;2022-12-11T08:28:04;1.95;;;1.20;;
24159;SDS011;62385;41.594;23.808;2022-12-11T08:30:30;4.28;;;2.08;;
24159;SDS011;62385;41.594;23.808;2022-12-11T08:32:56;1.13;;;0.90;;
24159;SDS011;62385;41.594;23.808;2022-12-11T08:35:24;1.67;;;1.25;;
24159;SDS011;62385;41.594;23.808;2022-12-11T08:37:50;1.85;;;1.67;;
24159;SDS011;62385;41.594;23.808;2022-12-11T08:40:15;3.83;;;2.05;;
24159;SDS011;62385;41.594;23.808;2022-12-11T08:42:41;3.75;;;1.85;;
24159;SDS011;62385;41.594;23.808;2022-12-11T08:45:07;4.75;;;2.25;;
24159;SDS011;62385;41.594;23.808;2022-12-11T08:47:33;14.35;;;4.35;;
24159;SDS011;62385;41.594;23.808;2022-12-11T08:49:59;8.07;;;4.35;;
24159;SDS011;62385;41.594;23.808;2022-12-11T08:52:24;3.22;;;1.60;;
24159;SDS011;62385;41.594;23.808;2022-12-11T08:54:50;17.77;;;3.25;;
24159;SDS011;62385;41.594;23.808;2022-12-11T08:57:33;5.25;;;2.72;;
24159;SDS011;62385;41.594;23.808;2022-12-11T08:59:59;6.05;;;3.47;;
24159;SDS011;62385;41.594;23.808;2022-12-11T09:02:24;18.30;;;6.22;;
24159;SDS011;62385;41.594;23.808;2022-12-11T09:04:50;23.80;;;12.25;;
24159;SDS011;62385;41.594;23.808;2022-12-11T09:07:16;4.60;;;3.25;;
24159;SDS011;62385;41.594;23.808;2022-12-11T09:09:41;23.15;;;9.40;;
24159;SDS011;62385;41.594;23.808;2022-12-11T09:12:07;10.68;;;4.28;;
24159;SDS011;62385;41.594;23.808;2022-12-11T09:14:32;17.05;;;7.78;;
24159;SDS011;62385;41.594;23.808;2022-12-11T09:16:58;23.85;;;11.02;;
24159;SDS011;62385;41.594;23.808;2022-12-11T09:19:24;30.45;;;11.75;;
24159;SDS011;62385;41.594;23.808;2022-12-11T09:21:50;16.52;;;6.43;;
24159;SDS011;62385;41.594;23.808;2022-12-11T09:24:15;19.08;;;8.45;;
24159;SDS011;62385;41.594;23.808;2022-12-11T09:26:41;6.53;;;2.65;;
24159;SDS011;62385;41.594;23.808;2022-12-11T09:29:06;7.30;;;3.55;;
24159;SDS011;62385;41.594;23.808;2022-12-11T09:31:33;6.00;;;2.25;;
24159;SDS011;62385;41.594;23.808;2022-12-11T09:34:07;16.73;;;7.25;;
24159;SDS011;62385;41.594;23.808;2022-12-11T09:36:37;20.60;;;8.88;;
24159;SDS011;62385;41.594;23.808;2022-12-11T09:39:05;15.55;;;6.57;;
24159;SDS011;62385;41.594;23.808;2022-12-11T09:41:54;12.93;;;5.63;;
24159;SDS011;62385;41.594;23.808;2022-12-11T09:44:45;18.60;;;7.32;;
24159;SDS011;62385;41.594;23.808;2022-12-11T09:47:41;16.27;;;7.03;;
24159;SDS011;62385;41.594;23.808;2022-12-11T09:52:43;8.00;;;3.20;;
24159;SDS011;62385;41.594;23.808;2022-12-11T09:55:25;10.07;;;3.85;;
24159;SDS011;62385;41.594;23.808;2022-12-11T09:58:02;11.20;;;4.60;;
24159;SDS011;62385;41.594;23.808;2022-12-11T10:03:59;7.40;;;4.25;;
24159;SDS011;62385;41.594;23.808;2022-12-11T10:06:49;7.20;;;4.30;;
24159;SDS011;62385;41.594;23.808;2022-12-11T10:09:50;1.92;;;1.35;;
24159;SDS011;62385;41.594;23.808;2022-12-11T10:18:13;7.40;;;3.65;;
24159;SDS011;62385;41.594;23.808;2022-12-11T10:20:45;6.13;;;2.92;;
24159;SDS011;62385;41.594;23.808;2022-12-11T10:23:19;7.07;;;3.28;;
24159;SDS011;62385;41.594;23.808;2022-12-11T10:26:02;2.55;;;1.40;;
24159;SDS011;62385;41.594;23.808;2022-12-11T10:28:42;4.57;;;2.03;;
24159;SDS011;62385;41.594;23.808;2022-12-11T10:31:11;5.85;;;2.97;;
24159;SDS011;62385;41.594;23.808;2022-12-11T10:36:28;7.88;;;2.90;;
24159;SDS011;62385;41.594;23.808;2022-12-11T10:39:10;5.88;;;2.95;;
24159;SDS011;62385;41.594;23.808;2022-12-11T10:41:39;4.47;;;1.40;;
24159;SDS011;62385;41.594;23.808;2022-12-11T10:49:35;6.40;;;3.33;;
24159;SDS011;62385;41.594;23.808;2022-12-11T10:52:08;6.95;;;3.17;;
24159;SDS011;62385;41.594;23.808;2022-12-11T10:54:44;5.35;;;2.80;;
24159;SDS011;62385;41.594;23.808;2022-12-11T10:57:13;6.82;;;2.65;;
24159;SDS011;62385;41.594;23.808;2022-12-11T10:59:44;5.03;;;2.53;;
24159;SDS011;62385;41.594;23.808;2022-12-11T11:02:24;3.67;;;2.40;;
24159;SDS011;62385;41.594;23.808;2022-12-11T11:04:56;3.80;;;2.92;;
24159;SDS011;62385;41.594;23.808;2022-12-11T11:12:39;6.05;;;3.92;;
24159;SDS011;62385;41.594;23.808;2022-12-11T11:15:10;5.10;;;2.45;;
24159;SDS011;62385;41.594;23.808;2022-12-11T11:17:46;10.82;;;4.05;;
24159;SDS011;62385;41.594;23.808;2022-12-11T11:20:13;2.75;;;2.00;;
24159;SDS011;62385;41.594;23.808;2022-12-11T11:22:44;14.65;;;4.07;;
24159;SDS011;62385;41.594;23.808;2022-12-11T11:25:19;5.60;;;2.45;;
24159;SDS011;62385;41.594;23.808;2022-12-11T11:27:57;8.05;;;4.57;;
24159;SDS011;62385;41.594;23.808;2022-12-11T11:30:26;4.70;;;3.60;;
24159;SDS011;62385;41.594;23.808;2022-12-11T11:33:02;5.60;;;2.80;;
24159;SDS011;62385;41.594;23.808;2022-12-11T11:35:54;11.45;;;5.32;;
24159;SDS011;62385;41.594;23.808;2022-12-11T11:38:21;4.32;;;2.40;;
24159;SDS011;62385;41.594;23.808;2022-12-11T11:43:46;10.35;;;4.32;;
24159;SDS011;62385;41.594;23.808;2022-12-11T11:46:16;14.18;;;5.63;;
24159;SDS011;62385;41.594;23.808;2022-12-11T11:48:52;4.60;;;2.17;;
24159;SDS011;62385;41.594;23.808;2022-12-11T11:51:33;4.35;;;1.85;;
24159;SDS011;62385;41.594;23.808;2022-12-11T11:54:07;7.40;;;2.33;;
24159;SDS011;62385;41.594;23.808;2022-12-11T11:56:43;0.20;;;0.03;;
24159;SDS011;62385;41.594;23.808;2022-12-11T11:59:12;1.48;;;0.57;;
24159;SDS011;62385;41.594;23.808;2022-12-11T12:01:40;4.07;;;1.63;;
24159;SDS011;62385;41.594;23.808;2022-12-11T12:04:07;0.40;;;0.40;;
24159;SDS011;62385;41.594;23.808;2022-12-11T12:06:53;1.05;;;0.95;;
24159;SDS011;62385;41.594;23.808;2022-12-11T12:09:31;0.57;;;0.35;;
24159;SDS011;62385;41.594;23.808;2022-12-11T12:15:17;2.67;;;0.40;;
24159;SDS011;62385;41.594;23.808;2022-12-11T12:25:55;1.80;;;0.45;;
24159;SDS011;62385;41.594;23.808;2022-12-11T12:45:41;0.57;;;0.50;;
24159;SDS011;62385;41.594;23.808;2022-12-11T12:48:10;1.10;;;0.52;;
24159;SDS011;62385;41.594;23.808;2022-12-11T12:50:36;1.23;;;1.13;;
24159;SDS011;62385;41.594;23.808;2022-12-11T12:53:06;2.15;;;1.77;;
24159;SDS011;62385;41.594;23.808;2022-12-11T12:55:38;3.38;;;2.05;;
24159;SDS011;62385;41.594;23.808;2022-12-11T12:58:04;2.55;;;1.55;;
24159;SDS011;62385;41.594;23.808;2022-12-11T13:00:35;2.97;;;1.92;;
24159;SDS011;62385;41.594;23.808;2022-12-11T13:03:20;1.05;;;0.70;;
24159;SDS011;62385;41.594;23.808;2022-12-11T13:06:07;1.48;;;1.20;;
24159;SDS011;62385;41.594;23.808;2022-12-11T13:08:41;1.80;;;1.30;;
24159;SDS011;62385;41.594;23.808;2022-12-11T13:11:10;1.60;;;1.25;;
24159;SDS011;62385;41.594;23.808;2022-12-11T13:13:40;2.15;;;1.25;;
24159;SDS011;62385;41.594;23.808;2022-12-11T13:19:25;3.38;;;1.02;;
24159;SDS011;62385;41.594;23.808;2022-12-11T13:24:27;2.13;;;1.08;;
24159;SDS011;62385;41.594;23.808;2022-12-11T13:27:10;0.82;;;0.38;;
24159;SDS011;62385;41.594;23.808;2022-12-11T13:29:48;1.17;;;0.32;;
24159;SDS011;62385;41.594;23.808;2022-12-11T13:34:43;2.08;;;0.57;;
24159;SDS011;62385;41.594;23.808;2022-12-11T13:37:29;0.30;;;0.20;;
24159;SDS011;62385;41.594;23.808;2022-12-11T13:39:56;3.28;;;1.00;;
24159;SDS011;62385;41.594;23.808;2022-12-11T13:42:37;1.75;;;0.70;;
24159;SDS011;62385;41.594;23.808;2022-12-11T13:45:19;5.00;;;1.60;;
24159;SDS011;62385;41.594;23.808;2022-12-11T13:47:48;0.60;;;0.40;;
24159;SDS011;62385;41.594;23.808;2022-12-11T13:50:16;2.33;;;1.25;;
24159;SDS011;62385;41.594;23.808;2022-12-11T13:52:52;1.67;;;1.30;;
24159;SDS011;62385;41.594;23.808;2022-12-11T13:55:26;6.40;;;2.33;;
24159;SDS011;62385;41.594;23.808;2022-12-11T13:57:54;3.88;;;2.28;;
24159;SDS011;62385;41.594;23.808;2022-12-11T14:00:22;2.38;;;1.20;;
24159;SDS011;62385;41.594;23.808;2022-12-11T14:02:50;1.58;;;0.90;;
24159;SDS011;62385;41.594;23.808;2022-12-11T14:05:17;1.67;;;0.50;;
24159;SDS011;62385;41.594;23.808;2022-12-11T14:07:48;0.88;;;0.60;;
24159;SDS011;62385;41.594;23.808;2022-12-11T14:10:24;0.52;;;0.25;;
24159;SDS011;62385;41.594;23.808;2022-12-11T14:13:02;0.57;;;0.30;;
24159;SDS011;62385;41.594;23.808;2022-12-11T14:15:30;0.70;;;0.32;;
24159;SDS011;62385;41.594;23.808;2022-12-11T14:17:57;1.83;;;1.45;;
24159;SDS011;62385;41.594;23.808;2022-12-11T14:20:26;0.93;;;0.70;;
24159;SDS011;62385;41.594;23.808;2022-12-11T14:25:55;0.50;;;0.43;;
24159;SDS011;62385;41.594;23.808;2022-12-11T14:28:24;0.30;;;0.20;;
24159;SDS011;62385;41.594;23.808;2022-12-11T14:30:56;0.55;;;0.30;;
24159;SDS011;62385;41.594;23.808;2022-12-11T14:33:26;3.97;;;0.98;;
24159;SDS011;62385;41.594;23.808;2022-12-11T14:35:56;0.70;;;0.45;;
24159;SDS011;62385;41.594;23.808;2022-12-11T14:38:23;2.72;;;1.30;;
24159;SDS011;62385;41.594;23.808;2022-12-11T14:40:54;3.30;;;1.70;;
24159;SDS011;62385;41.594;23.808;2022-12-11T14:43:32;1.40;;;0.95;;
24159;SDS011;62385;41.594;23.808;2022-12-11T14:46:07;3.40;;;0.75;;
24159;SDS011;62385;41.594;23.808;2022-12-11T14:48:38;1.13;;;0.63;;
24159;SDS011;62385;41.594;23.808;2022-12-11T14:51:42;4.30;;;2.00;;
24159;SDS011;62385;41.594;23.808;2022-12-11T14:54:13;1.83;;;1.20;;
24159;SDS011;62385;41.594;23.808;2022-12-11T14:56:44;2.33;;;0.90;;
24159;SDS011;62385;41.594;23.808;2022-12-11T14:59:15;0.38;;;0.30;;
24159;SDS011;62385;41.594;23.808;2022-12-11T15:01:44;1.42;;;0.88;;
24159;SDS011;62385;41.594;23.808;2022-12-11T15:06:42;1.08;;;0.60;;
24159;SDS011;62385;41.594;23.808;2022-12-11T15:12:17;1.73;;;1.50;;
24159;SDS011;62385;41.594;23.808;2022-12-11T15:14:46;1.00;;;0.68;;
24159;SDS011;62385;41.594;23.808;2022-12-11T15:17:16;1.35;;;0.88;;
24159;SDS011;62385;41.594;23.808;2022-12-11T15:19:47;3.53;;;1.48;;
24159;SDS011;62385;41.594;23.808;2022-12-11T15:22:16;2.63;;;1.67;;
24159;SDS011;62385;41.594;23.808;2022-12-11T15:24:44;2.88;;;1.90;;
24159;SDS011;62385;41.594;23.808;2022-12-11T15:29:52;4.07;;;1.88;;
24159;SDS011;62385;41.594;23.808;2022-12-11T15:32:18;2.35;;;1.17;;
24159;SDS011;62385;41.594;23.808;2022-12-11T15:37:18;1.23;;;0.95;;
24159;SDS011;62385;41.594;23.808;2022-12-11T15:39:46;3.47;;;1.13;;
24159;SDS011;62385;41.594;23.808;2022-12-11T15:42:17;2.63;;;1.75;;
24159;SDS011;62385;41.594;23.808;2022-12-11T15:44:48;3.70;;;1.02;;
24159;SDS011;62385;41.594;23.808;2022-12-11T15:47:15;5.50;;;2.05;;
24159;SDS011;62385;41.594;23.808;2022-12-11T15:49:46;3.25;;;2.03;;
24159;SDS011;62385;41.594;23.808;2022-12-11T15:52:12;3.30;;;1.05;;
24159;SDS011;62385;41.594;23.808;2022-12-11T15:54:38;3.97;;;1.90;;
24159;SDS011;62385;41.594;23.808;2022-12-11T15:57:05;2.58;;;2.03;;
24159;SDS011;62385;41.594;23.808;2022-12-11T15:59:37;3.72;;;2.55;;
24159;SDS011;62385;41.594;23.808;2022-12-11T16:02:03;1.48;;;1.20;;
24159;SDS011;62385;41.594;23.808;2022-12-11T16:04:37;3.75;;;2.35;;
24159;SDS011;62385;41.594;23.808;2022-12-11T16:07:04;3.22;;;1.88;;
24159;SDS011;62385;41.594;23.808;2022-12-11T16:09:30;2.53;;;1.23;;
24159;SDS011;62385;41.594;23.808;2022-12-11T16:11:58;3.72;;;0.85;;
24159;SDS011;62385;41.594;23.808;2022-12-11T16:14:24;0.80;;;0.80;;
24159;SDS011;62385;41.594;23.808;2022-12-11T16:16:49;4.45;;;1.80;;
24159;SDS011;62385;41.594;23.808;2022-12-11T16:19:15;2.75;;;1.42;;
24159;SDS011;62385;41.594;23.808;2022-12-11T16:21:41;4.68;;;2.65;;
24159;SDS011;62385;41.594;23.808;2022-12-11T16:24:06;1.20;;;0.55;;
24159;SDS011;62385;41.594;23.808;2022-12-11T16:26:32;6.85;;;2.22;;
24159;SDS011;62385;41.594;23.808;2022-12-11T16:28:57;4.20;;;1.48;;
24159;SDS011;62385;41.594;23.808;2022-12-11T16:31:23;3.08;;;1.45;;